Time;durP1;ratioP1;P1;durP2;ratioP2;P2;SDS_P1;SDS_P2;PMS_P1;PMS_P2;Temp;Humidity;BMP_temperature;BMP_pressure;BME280_temperature;BME280_humidity;BME280_pressure;Samples;Min_cycle;Max_cycle;Signal;HPM_P1;HPM_P2
2021/03/26 00:00:49;;;;;;;12.63;4.25;;;9.80;99.90;;;;;;5031832;28;20044;-56
2021/03/26 00:03:17;;;;;;;14.25;4.82;;;9.80;99.90;;;;;;5016559;28;20032;-59
2021/03/26 00:05:44;;;;;;;16.73;4.38;;;9.80;99.90;;;;;;5031905;28;20033;-58
2021/03/26 00:08:12;;;;;;;15.13;4.43;;;9.80;99.90;;;;;;5031833;28;20037;-58
2021/03/26 00:10:38;;;;;;;12.23;3.92;;;9.70;99.90;;;;;;5031411;28;20052;-58
2021/03/26 00:13:05;;;;;;;14.15;4.32;;;9.70;99.90;;;;;;5031575;28;20030;-59
2021/03/26 00:15:30;;;;;;;18.73;4.45;;;9.70;99.90;;;;;;5031443;28;20038;-58
2021/03/26 00:17:56;;;;;;;15.55;3.95;;;9.70;99.90;;;;;;5031581;28;20037;-58
2021/03/26 00:20:22;;;;;;;15.02;4.10;;;9.70;99.90;;;;;;5031282;28;20110;-56
2021/03/26 00:22:48;;;;;;;16.70;4.32;;;9.70;99.90;;;;;;5031408;28;20053;-57
2021/03/26 00:25:14;;;;;;;18.67;4.50;;;9.70;99.90;;;;;;5031340;28;20022;-59
2021/03/26 00:27:39;;;;;;;17.73;4.63;;;9.70;99.90;;;;;;5030976;28;20057;-59
2021/03/26 00:30:08;;;;;;;15.68;3.88;;;9.60;99.90;;;;;;5031537;28;20061;-58
2021/03/26 00:32:35;;;;;;;17.13;3.83;;;9.60;99.90;;;;;;5031237;28;20025;-59
2021/03/26 00:35:01;;;;;;;14.40;3.92;;;9.60;99.90;;;;;;5030622;28;20415;-58
2021/03/26 00:37:27;;;;;;;14.43;4.20;;;9.60;99.90;;;;;;5031040;28;20128;-57
2021/03/26 00:39:53;;;;;;;15.15;4.10;;;9.60;99.90;;;;;;5031281;28;20056;-55
2021/03/26 00:42:19;;;;;;;15.38;3.85;;;9.60;99.90;;;;;;5030997;28;20053;-56
2021/03/26 00:44:45;;;;;;;15.23;3.90;;;9.70;99.90;;;;;;5017248;28;20037;-57
2021/03/26 00:47:12;;;;;;;14.63;4.07;;;9.70;99.90;;;;;;5031188;28;20040;-59
2021/03/26 00:49:38;;;;;;;15.18;4.28;;;9.70;99.90;;;;;;5030830;28;20125;-58
2021/03/26 00:52:05;;;;;;;19.63;4.00;;;9.70;99.90;;;;;;5031136;28;20175;-58
2021/03/26 00:54:32;;;;;;;18.30;4.22;;;9.70;99.90;;;;;;5030897;28;20025;-58
2021/03/26 00:56:58;;;;;;;13.95;3.58;;;9.70;99.90;;;;;;5030925;28;20041;-58
2021/03/26 00:59:24;;;;;;;14.20;3.58;;;9.70;99.90;;;;;;5030919;28;20044;-58
2021/03/26 01:01:50;;;;;;;14.10;3.97;;;9.70;99.90;;;;;;5013543;28;20376;-59
2021/03/26 01:04:16;;;;;;;16.00;3.95;;;9.60;99.90;;;;;;5031084;28;20025;-56
2021/03/26 01:06:42;;;;;;;17.95;4.38;;;9.60;99.90;;;;;;5030741;28;20030;-59
2021/03/26 01:09:08;;;;;;;18.08;4.10;;;9.60;99.90;;;;;;5030865;28;20026;-57
2021/03/26 01:11:36;;;;;;;16.40;3.80;;;9.60;99.90;;;;;;5030920;28;20039;-55
2021/03/26 01:14:04;;;;;;;17.88;3.65;;;9.60;99.90;;;;;;5030614;28;20559;-58
2021/03/26 01:16:30;;;;;;;17.30;4.03;;;9.60;99.90;;;;;;5030834;28;20029;-59
2021/03/26 01:18:56;;;;;;;14.50;3.78;;;9.50;99.90;;;;;;5030452;28;20051;-58
2021/03/26 01:21:26;;;;;;;21.40;4.45;;;9.50;99.90;;;;;;5030844;28;20518;-58
2021/03/26 01:23:53;;;;;;;15.85;3.90;;;9.50;99.90;;;;;;5030842;28;20083;-60
2021/03/26 01:26:20;;;;;;;20.85;3.58;;;9.40;99.90;;;;;;5030693;28;20041;-60
2021/03/26 01:28:46;;;;;;;18.48;4.03;;;9.50;99.90;;;;;;5030624;28;20549;-58
2021/03/26 01:31:12;;;;;;;14.70;3.42;;;9.50;99.90;;;;;;5030834;28;20042;-54
2021/03/26 01:33:38;;;;;;;17.50;3.80;;;9.50;99.90;;;;;;5030706;28;20037;-56
2021/03/26 01:36:04;;;;;;;21.42;4.20;;;9.40;99.90;;;;;;5030733;28;20044;-57
2021/03/26 01:38:30;;;;;;;20.85;4.30;;;9.40;99.90;;;;;;5030723;28;20116;-56
2021/03/26 01:41:03;;;;;;;21.58;4.40;;;9.40;99.90;;;;;;5030548;28;20104;-54
2021/03/26 01:43:33;;;;;;;18.30;3.90;;;9.30;99.90;;;;;;5030662;28;20041;-56
2021/03/26 01:45:59;;;;;;;18.20;3.88;;;9.30;99.90;;;;;;5032418;28;20033;-55
2021/03/26 01:48:35;;;;;;;23.48;4.15;;;9.40;99.90;;;;;;5034347;28;20037;-58
2021/03/26 01:51:04;;;;;;;22.42;4.57;;;9.40;99.90;;;;;;5033933;28;20084;-56
2021/03/26 01:53:30;;;;;;;24.77;4.75;;;9.40;99.90;;;;;;5034243;28;20172;-57
2021/03/26 01:55:58;;;;;;;20.98;5.00;;;9.40;99.90;;;;;;5034541;28;20101;-58
2021/03/26 01:58:27;;;;;;;26.17;5.35;;;9.50;99.90;;;;;;5034066;28;20025;-55
2021/03/26 02:00:59;;;;;;;22.90;5.10;;;9.40;99.90;;;;;;5034003;28;20419;-57
2021/03/26 02:03:29;;;;;;;26.45;5.65;;;9.50;99.90;;;;;;5034093;28;20032;-56
2021/03/26 02:06:01;;;;;;;23.25;5.53;;;9.50;99.90;;;;;;5021089;28;20025;-57
2021/03/26 02:08:30;;;;;;;32.45;5.35;;;9.50;99.90;;;;;;5032993;28;20029;-58
2021/03/26 02:10:59;;;;;;;26.95;5.13;;;9.50;99.90;;;;;;5033982;28;20025;-56
2021/03/26 02:13:29;;;;;;;28.23;5.03;;;9.50;99.90;;;;;;5034063;28;20029;-57
2021/03/26 02:15:56;;;;;;;24.83;5.35;;;9.60;99.90;;;;;;5033874;28;20025;-58
2021/03/26 02:18:27;;;;;;;26.55;5.53;;;9.60;99.90;;;;;;5033560;28;20043;-57
2021/03/26 02:20:57;;;;;;;25.38;4.97;;;9.60;99.90;;;;;;5033937;28;20084;-54
2021/03/26 02:23:27;;;;;;;24.92;4.72;;;9.70;99.90;;;;;;5033491;28;20059;-56
2021/03/26 02:25:55;;;;;;;19.20;4.32;;;9.70;99.90;;;;;;5034017;28;20104;-58
2021/03/26 02:28:21;;;;;;;22.27;5.47;;;9.70;99.90;;;;;;5033596;28;20040;-60
2021/03/26 02:30:53;;;;;;;26.88;5.43;;;9.70;99.90;;;;;;5033456;28;20036;-57
2021/03/26 02:33:21;;;;;;;26.52;5.00;;;9.60;99.90;;;;;;5033469;28;20086;-58
2021/03/26 02:35:50;;;;;;;24.00;5.20;;;9.70;99.90;;;;;;5033281;28;20029;-57
2021/03/26 02:38:23;;;;;;;28.77;5.80;;;9.70;99.90;;;;;;5033514;28;20029;-59
2021/03/26 02:41:00;;;;;;;23.17;4.63;;;9.70;99.90;;;;;;5033375;28;20075;-59
2021/03/26 02:44:00;;;;;;;25.20;5.13;;;9.70;99.90;;;;;;5033358;28;20069;-58
2021/03/26 02:46:43;;;;;;;25.02;4.57;;;9.80;99.90;;;;;;5033106;28;20031;-57
2021/03/26 02:49:27;;;;;;;26.17;4.82;;;9.80;99.90;;;;;;5033057;28;20430;-58
2021/03/26 02:52:21;;;;;;;20.35;4.43;;;9.80;99.90;;;;;;5033217;28;20024;-59
2021/03/26 02:54:57;;;;;;;32.88;5.60;;;9.80;99.90;;;;;;5033096;28;20034;-57
2021/03/26 02:57:38;;;;;;;29.65;5.82;;;9.80;99.90;;;;;;5032346;28;20030;-59
2021/03/26 03:00:20;;;;;;;28.10;5.25;;;9.80;99.90;;;;;;5032965;28;20534;-59
2021/03/26 03:02:48;;;;;;;25.00;4.68;;;9.90;99.90;;;;;;5032837;28;20463;-59
2021/03/26 03:05:21;;;;;;;29.88;5.50;;;9.90;99.90;;;;;;5033021;28;20578;-58
2021/03/26 03:07:54;;;;;;;27.73;5.22;;;9.90;99.90;;;;;;5032798;28;20037;-58
2021/03/26 03:10:29;;;;;;;35.90;5.85;;;10.00;99.90;;;;;;5032598;28;20036;-57
2021/03/26 03:13:01;;;;;;;30.80;5.22;;;9.90;99.90;;;;;;5032772;28;20080;-60
2021/03/26 03:15:31;;;;;;;28.75;4.93;;;9.90;99.90;;;;;;5032629;28;20038;-59
2021/03/26 03:18:00;;;;;;;32.50;5.25;;;9.90;99.90;;;;;;5032672;28;20042;-58
2021/03/26 03:20:37;;;;;;;26.02;4.95;;;9.90;99.90;;;;;;5032942;28;20037;-58
2021/03/26 03:23:15;;;;;;;29.23;5.07;;;10.00;99.90;;;;;;5032598;28;20052;-59
2021/03/26 03:25:41;;;;;;;28.30;5.03;;;10.00;99.90;;;;;;5032626;28;20545;-59
2021/03/26 03:28:25;;;;;;;32.25;5.32;;;10.00;99.90;;;;;;5032675;28;20040;-58
2021/03/26 03:31:15;;;;;;;24.15;4.68;;;10.00;99.90;;;;;;5032332;28;20044;-57
2021/03/26 03:34:09;;;;;;;26.17;4.72;;;10.10;99.90;;;;;;5032492;28;20491;-60
2021/03/26 03:37:04;;;;;;;23.50;4.57;;;10.10;99.90;;;;;;5021833;28;20483;-57
2021/03/26 03:39:46;;;;;;;27.20;5.15;;;10.10;99.90;;;;;;5032482;28;20029;-58
2021/03/26 03:42:41;;;;;;;24.55;4.65;;;10.20;99.90;;;;;;5032165;28;20038;-57
2021/03/26 03:45:20;;;;;;;23.85;4.60;;;10.20;99.90;;;;;;4986837;28;20364;-58
2021/03/26 03:47:59;;;;;;;23.70;3.83;;;10.10;99.90;;;;;;5031951;28;20491;-58
2021/03/26 03:50:30;;;;;;;24.63;4.28;;;10.20;99.90;;;;;;5032967;28;20381;-58
2021/03/26 03:53:04;;;;;;;19.35;4.18;;;10.20;99.90;;;;;;5031810;28;20388;-56
2021/03/26 03:55:38;;;;;;;19.67;3.80;;;10.20;99.90;;;;;;5032005;28;20037;-56
2021/03/26 03:58:27;;;;;;;22.52;3.70;;;10.20;99.90;;;;;;5031979;28;20083;-56
2021/03/26 04:01:15;;;;;;;22.75;4.35;;;10.20;99.90;;;;;;5020594;28;20034;-60
2021/03/26 04:03:50;;;;;;;22.55;3.53;;;10.20;99.90;;;;;;5007625;28;20128;-54
2021/03/26 04:06:20;;;;;;;17.80;3.97;;;10.30;99.90;;;;;;5031954;28;20041;-57
2021/03/26 04:09:02;;;;;;;25.55;4.15;;;10.30;99.90;;;;;;5031490;28;20025;-57
2021/03/26 04:11:41;;;;;;;21.13;4.15;;;10.30;99.90;;;;;;5031467;28;20037;-57
2021/03/26 04:14:10;;;;;;;19.77;3.85;;;10.30;99.90;;;;;;5031600;28;20029;-56
2021/03/26 04:16:38;;;;;;;20.10;4.03;;;10.30;99.90;;;;;;5031712;28;20128;-59
2021/03/26 04:19:31;;;;;;;21.08;4.03;;;10.30;99.90;;;;;;5031237;28;20045;-56
2021/03/26 04:22:11;;;;;;;19.38;3.50;;;10.30;99.90;;;;;;5027437;28;20100;-54
2021/03/26 04:24:46;;;;;;;21.35;3.53;;;10.20;99.90;;;;;;5031666;28;20029;-58
2021/03/26 04:27:19;;;;;;;20.80;3.40;;;10.20;99.90;;;;;;5031369;28;20041;-58
2021/03/26 04:29:47;;;;;;;10.82;2.88;;;10.20;99.90;;;;;;5023754;28;20507;-57
2021/03/26 04:32:16;;;;;;;25.10;3.53;;;10.30;99.90;;;;;;5011038;28;20025;-58
2021/03/26 04:34:43;;;;;;;22.85;3.78;;;10.20;99.90;;;;;;4993796;28;20026;-58
2021/03/26 04:37:40;;;;;;;16.60;3.40;;;10.30;99.90;;;;;;5011578;28;20381;-57
2021/03/26 04:40:13;;;;;;;17.85;3.72;;;10.20;99.90;;;;;;5008116;28;20048;-58
2021/03/26 04:42:51;;;;;;;16.38;3.70;;;10.20;99.90;;;;;;5011427;28;20030;-59
2021/03/26 04:45:37;;;;;;;19.13;3.40;;;10.20;99.90;;;;;;5011397;28;20033;-58
2021/03/26 04:48:06;;;;;;;22.38;3.88;;;10.20;99.90;;;;;;5011379;28;20377;-59
2021/03/26 04:50:43;;;;;;;22.75;3.45;;;10.20;99.90;;;;;;5011523;28;20026;-58
2021/03/26 04:53:16;;;;;;;17.58;3.17;;;10.10;99.90;;;;;;5011627;28;20064;-58
2021/03/26 04:55:52;;;;;;;20.88;3.70;;;10.10;99.90;;;;;;4993572;28;20449;-55
2021/03/26 04:58:26;;;;;;;22.83;3.92;;;10.10;99.90;;;;;;5011565;28;20037;-58
2021/03/26 05:01:09;;;;;;;17.80;3.47;;;10.10;99.90;;;;;;5011278;28;20034;-57
2021/03/26 05:03:40;;;;;;;12.80;3.38;;;10.10;99.90;;;;;;5011457;28;20061;-57
2021/03/26 05:06:20;;;;;;;15.02;3.05;;;10.10;99.90;;;;;;5011277;28;20396;-59
2021/03/26 05:09:00;;;;;;;14.25;3.05;;;10.10;99.90;;;;;;5011236;28;20112;-57
2021/03/26 05:11:30;;;;;;;12.90;3.22;;;10.10;99.90;;;;;;5011182;28;20040;-53
2021/03/26 05:14:01;;;;;;;17.02;3.40;;;10.00;99.90;;;;;;5011147;28;20105;-56
2021/03/26 05:16:54;;;;;;;24.65;3.47;;;10.00;99.90;;;;;;5011405;28;20069;-59
2021/03/26 05:19:32;;;;;;;22.95;3.67;;;10.00;99.90;;;;;;5010247;28;20054;-58
2021/03/26 05:22:26;;;;;;;18.05;3.35;;;10.00;99.90;;;;;;5014945;28;20135;-56
2021/03/26 05:25:09;;;;;;;18.88;3.05;;;10.00;99.90;;;;;;4984223;28;20052;-59
2021/03/26 05:27:34;;;;;;;15.45;2.67;;;10.00;99.90;;;;;;5015050;28;20108;-55
2021/03/26 05:30:00;;;;;;;19.13;3.22;;;10.00;99.90;;;;;;5015139;28;20116;-59
2021/03/26 05:32:51;;;;;;;21.42;4.22;;;9.90;99.90;;;;;;5014884;28;20105;-57
2021/03/26 05:35:25;;;;;;;15.98;3.47;;;10.00;99.90;;;;;;5003130;28;20044;-57
2021/03/26 05:38:05;;;;;;;17.10;3.25;;;10.00;99.90;;;;;;5014500;28;20100;-56
2021/03/26 05:40:44;;;;;;;15.68;3.17;;;10.00;99.90;;;;;;5014982;28;20077;-56
2021/03/26 05:43:56;;;;;;;20.20;3.17;;;10.00;99.90;;;;;;5014745;28;20200;-57
2021/03/26 05:46:36;;;;;;;15.25;3.10;;;9.90;99.90;;;;;;5010046;28;20049;-56
2021/03/26 05:49:11;;;;;;;18.60;3.45;;;9.90;99.90;;;;;;5014885;28;20075;-58
2021/03/26 05:51:57;;;;;;;20.75;4.10;;;9.90;99.90;;;;;;5014707;28;20113;-58
2021/03/26 05:54:47;;;;;;;23.73;3.65;;;9.90;99.90;;;;;;5014413;28;20022;-57
2021/03/26 05:57:20;;;;;;;23.67;3.78;;;9.90;99.90;;;;;;5014403;28;20030;-57
2021/03/26 06:00:34;;;;;;;29.52;4.15;;;9.90;99.90;;;;;;5014673;28;20045;-56
2021/03/26 06:03:18;;;;;;;17.23;3.85;;;9.90;99.90;;;;;;5005972;28;20034;-57
2021/03/26 06:06:03;;;;;;;16.27;3.28;;;9.90;99.90;;;;;;5013725;28;20036;-57
2021/03/26 06:09:10;;;;;;;18.45;3.15;;;10.00;99.90;;;;;;5014059;28;20037;-57
2021/03/26 06:11:56;;;;;;;18.58;3.20;;;10.00;99.90;;;;;;5014022;28;20037;-56
2021/03/26 06:14:31;;;;;;;26.33;4.15;;;10.00;99.90;;;;;;5000896;28;20121;-57
2021/03/26 06:17:24;;;;;;;23.73;3.72;;;10.00;99.90;;;;;;5014128;28;20048;-56
2021/03/26 06:20:00;;;;;;;17.65;3.63;;;10.00;99.90;;;;;;5004096;28;20030;-57
2021/03/26 06:22:46;;;;;;;28.88;4.47;;;10.00;99.90;;;;;;5014011;28;20096;-55
2021/03/26 06:25:46;;;;;;;17.63;3.40;;;10.00;99.90;;;;;;5013973;28;20045;-56
2021/03/26 06:28:42;;;;;;;19.17;3.17;;;10.00;99.90;;;;;;5002697;28;20038;-57
2021/03/26 06:31:36;;;;;;;24.77;3.60;;;9.90;99.90;;;;;;4981664;28;20443;-60
2021/03/26 06:34:22;;;;;;;28.27;3.83;;;9.90;99.90;;;;;;5013511;28;20172;-57
2021/03/26 06:36:54;;;;;;;18.98;3.65;;;9.90;99.90;;;;;;5013766;28;20030;-55
2021/03/26 06:39:39;;;;;;;22.55;3.78;;;9.90;99.90;;;;;;5013407;28;20535;-57
2021/03/26 06:42:40;;;;;;;18.17;3.83;;;9.80;99.90;;;;;;5013553;28;20472;-55
2021/03/26 06:45:37;;;;;;;25.50;4.28;;;9.90;99.90;;;;;;5010232;28;20041;-55
2021/03/26 06:48:17;;;;;;;22.23;3.70;;;10.00;99.90;;;;;;5013300;28;20038;-57
2021/03/26 06:51:07;;;;;;;17.58;3.60;;;10.00;99.90;;;;;;5001589;28;20080;-57
2021/03/26 06:54:09;;;;;;;25.40;3.45;;;10.10;99.90;;;;;;5013625;28;20538;-57
2021/03/26 06:57:13;;;;;;;22.30;3.70;;;10.10;99.90;;;;;;5013216;28;20048;-57
2021/03/26 07:00:24;;;;;;;18.85;3.97;;;10.10;99.90;;;;;;5013337;28;20049;-59
2021/03/26 07:03:08;;;;;;;27.48;4.00;;;10.20;99.90;;;;;;5013259;28;20457;-54
2021/03/26 07:05:50;;;;;;;21.33;3.72;;;10.20;99.90;;;;;;5013084;28;20022;-57
2021/03/26 07:08:37;;;;;;;19.55;3.88;;;10.30;99.90;;;;;;5013225;28;20042;-57
2021/03/26 07:11:16;;;;;;;18.92;3.70;;;10.20;99.90;;;;;;5000684;28;20371;-58
2021/03/26 07:14:19;;;;;;;22.90;3.80;;;10.30;99.90;;;;;;5012605;28;20407;-58
2021/03/26 07:16:50;;;;;;;28.60;3.65;;;10.30;99.90;;;;;;5012914;28;20030;-59
2021/03/26 07:19:39;;;;;;;24.23;3.85;;;10.30;99.90;;;;;;5012665;28;20044;-59
2021/03/26 07:22:42;;;;;;;21.17;3.53;;;10.20;99.90;;;;;;5027799;28;20583;-59
2021/03/26 07:25:39;;;;;;;22.88;3.42;;;10.30;99.90;;;;;;5012789;28;20038;-60
2021/03/26 07:28:38;;;;;;;24.92;4.00;;;10.40;99.90;;;;;;5000528;28;20038;-58
2021/03/26 07:31:14;;;;;;;21.88;4.25;;;10.40;99.90;;;;;;4984212;28;20443;-57
2021/03/26 07:34:07;;;;;;;26.63;4.30;;;10.50;99.90;;;;;;5012627;28;20034;-57
2021/03/26 07:36:36;;;;;;;24.67;3.90;;;10.50;99.90;;;;;;5000126;28;20054;-59
2021/03/26 07:39:25;;;;;;;18.38;3.75;;;10.50;99.90;;;;;;5012083;28;20042;-58
2021/03/26 07:42:02;;;;;;;15.57;3.22;;;10.60;99.90;;;;;;5012382;28;20046;-57
2021/03/26 07:45:05;;;;;;;20.00;3.70;;;10.60;99.90;;;;;;5012199;28;20109;-58
2021/03/26 07:47:45;;;;;;;13.95;2.85;;;10.50;99.90;;;;;;5002337;28;20025;-57
2021/03/26 07:50:26;;;;;;;13.75;2.97;;;10.50;99.90;;;;;;5012273;28;20110;-56
2021/03/26 07:53:16;;;;;;;17.50;3.70;;;10.60;99.90;;;;;;5012453;28;20062;-58
2021/03/26 07:56:19;;;;;;;18.75;3.85;;;10.60;99.90;;;;;;4999443;28;20495;-57
2021/03/26 07:59:06;;;;;;;14.85;3.13;;;10.70;99.90;;;;;;4973811;28;20046;-57
2021/03/26 08:01:38;;;;;;;17.95;3.67;;;10.70;99.90;;;;;;5012073;28;20033;-57
2021/03/26 08:04:43;;;;;;;14.50;3.05;;;10.70;99.90;;;;;;5012015;28;20045;-57
2021/03/26 08:07:43;;;;;;;11.48;2.75;;;10.70;99.90;;;;;;4976973;28;20512;-55
2021/03/26 08:10:34;;;;;;;15.60;3.08;;;10.70;99.90;;;;;;5011855;28;20033;-56
2021/03/26 08:13:18;;;;;;;14.77;3.40;;;10.70;99.90;;;;;;5001465;28;20475;-56
2021/03/26 08:16:13;;;;;;;23.83;4.13;;;10.70;99.90;;;;;;5011874;28;20038;-54
2021/03/26 08:18:57;;;;;;;15.52;3.75;;;10.70;99.90;;;;;;5027087;28;20459;-58
2021/03/26 08:21:42;;;;;;;18.35;3.47;;;10.70;99.90;;;;;;5000043;28;20034;-60
2021/03/26 08:24:32;;;;;;;16.17;3.10;;;10.70;99.90;;;;;;5011620;28;20026;-59
2021/03/26 08:27:21;;;;;;;13.23;2.95;;;10.80;99.90;;;;;;5011954;28;20141;-59
2021/03/26 08:30:10;;;;;;;11.98;2.90;;;10.80;99.90;;;;;;4999321;28;20033;-58
2021/03/26 08:32:36;;;;;;;13.55;2.80;;;10.80;99.90;;;;;;5011573;28;20042;-58
2021/03/26 08:35:19;;;;;;;16.50;3.17;;;10.90;99.90;;;;;;5011775;28;20034;-58
2021/03/26 08:38:13;;;;;;;21.67;4.00;;;11.00;99.90;;;;;;5011551;28;20044;-59
2021/03/26 08:40:49;;;;;;;18.83;3.08;;;11.20;99.90;;;;;;5000832;28;20361;-58
2021/03/26 08:43:18;;;;;;;19.58;3.05;;;11.50;99.90;;;;;;5011189;28;20041;-60
2021/03/26 08:45:59;;;;;;;25.20;3.58;;;11.70;99.90;;;;;;5011673;28;20117;-59
2021/03/26 08:48:36;;;;;;;14.00;2.95;;;11.90;99.90;;;;;;5011290;28;20065;-58
2021/03/26 08:51:20;;;;;;;12.25;2.80;;;11.90;99.90;;;;;;5011355;28;20092;-58
2021/03/26 08:53:54;;;;;;;15.67;2.90;;;12.10;99.90;;;;;;5011652;28;20041;-57
2021/03/26 08:56:23;;;;;;;25.27;4.32;;;12.20;99.90;;;;;;5010667;28;20060;-57
2021/03/26 08:59:07;;;;;;;22.08;3.65;;;12.30;99.90;;;;;;5011103;28;20040;-57
2021/03/26 09:01:48;;;;;;;19.98;3.60;;;12.50;99.90;;;;;;5011112;28;20100;-57
2021/03/26 09:04:50;;;;;;;13.18;3.10;;;12.70;99.90;;;;;;5011304;28;20096;-58
2021/03/26 09:07:52;;;;;;;19.35;2.80;;;12.90;99.90;;;;;;5011245;28;20034;-57
2021/03/26 09:11:06;;;;;;;21.85;3.08;;;13.00;99.90;;;;;;5010898;28;20089;-57
2021/03/26 09:13:43;;;;;;;14.05;2.45;;;13.10;99.90;;;;;;4960669;28;20035;-57
2021/03/26 09:16:16;;;;;;;14.77;2.97;;;13.20;99.90;;;;;;4998745;28;20042;-58
2021/03/26 09:18:51;;;;;;;12.82;2.80;;;13.10;99.90;;;;;;5010872;28;20037;-57
2021/03/26 09:21:44;;;;;;;15.57;2.97;;;13.10;99.90;;;;;;5011163;28;20113;-54
2021/03/26 09:24:38;;;;;;;20.15;2.78;;;13.00;99.90;;;;;;5011075;28;20435;-56
2021/03/26 09:27:14;;;;;;;14.82;3.17;;;12.70;99.90;;;;;;5011012;28;20225;-58
2021/03/26 09:29:44;;;;;;;23.65;3.50;;;12.60;99.90;;;;;;5011058;28;20022;-58
2021/03/26 09:32:25;;;;;;;16.13;3.00;;;12.40;99.90;;;;;;5011046;28;20034;-57
2021/03/26 09:35:26;;;;;;;10.23;2.35;;;12.30;99.90;;;;;;4993905;28;20035;-55
2021/03/26 09:38:12;;;;;;;16.77;3.05;;;12.20;99.90;;;;;;4989081;28;20519;-57
2021/03/26 09:41:02;;;;;;;16.30;2.90;;;12.30;99.90;;;;;;5010789;28;20057;-56
2021/03/26 09:43:49;;;;;;;16.42;3.15;;;12.40;99.90;;;;;;5010690;28;20068;-58
2021/03/26 09:46:39;;;;;;;21.63;4.45;;;12.70;99.90;;;;;;5010960;28;20030;-58
2021/03/26 09:49:24;;;;;;;16.80;2.72;;;12.80;99.90;;;;;;4999775;28;20026;-58
2021/03/26 09:51:51;;;;;;;15.30;2.95;;;13.00;99.90;;;;;;5010830;28;20025;-58
2021/03/26 09:54:23;;;;;;;12.57;3.35;;;12.90;99.90;;;;;;5010830;28;20038;-55
2021/03/26 09:57:21;;;;;;;12.40;3.22;;;13.00;99.90;;;;;;5010679;28;20018;-59
2021/03/26 10:00:12;;;;;;;17.77;2.95;;;12.80;99.90;;;;;;5010904;28;20042;-58
2021/03/26 10:02:56;;;;;;;22.88;2.97;;;12.80;99.90;;;;;;4999091;28;20032;-57
2021/03/26 10:05:31;;;;;;;23.30;3.10;;;12.90;99.90;;;;;;5010441;28;20037;-57
2021/03/26 10:08:09;;;;;;;13.05;2.95;;;13.00;99.90;;;;;;5014600;28;20022;-57
2021/03/26 10:13:11;;;;;;;16.02;3.35;;;12.90;99.90;;;;;;5013474;28;20476;-57
2021/03/26 10:15:45;;;;;;;;;;;12.90;99.90;;;;;;5014163;28;20482;-54
2021/03/26 10:18:35;;;;;;;19.45;3.03;;;12.80;99.90;;;;;;5014272;28;19917;-59
2021/03/26 10:21:00;;;;;;;19.33;3.30;;;12.80;99.90;;;;;;5013834;28;20127;-58
2021/03/26 10:23:37;;;;;;;16.58;3.42;;;12.70;99.90;;;;;;5013775;28;20062;-56
2021/03/26 10:26:09;;;;;;;27.35;3.50;;;12.70;99.90;;;;;;5013539;28;20476;-59
2021/03/26 10:28:49;;;;;;;13.15;2.97;;;12.60;99.90;;;;;;5013831;28;20032;-58
2021/03/26 10:31:25;;;;;;;15.88;2.75;;;12.60;99.90;;;;;;5013973;28;20053;-56
2021/03/26 10:34:00;;;;;;;13.82;2.92;;;12.50;99.90;;;;;;5013863;28;20037;-56
2021/03/26 10:36:38;;;;;;;17.50;3.03;;;12.60;99.90;;;;;;5013794;28;20021;-58
2021/03/26 10:39:22;;;;;;;27.70;7.28;;;12.60;99.90;;;;;;5013551;28;20454;-56
2021/03/26 10:41:49;;;;;;;17.83;3.08;;;12.70;99.90;;;;;;5013450;28;20026;-57
2021/03/26 10:44:38;;;;;;;17.65;3.15;;;12.60;99.90;;;;;;5013557;28;20022;-60
2021/03/26 10:47:36;;;;;;;11.60;2.53;;;12.60;99.90;;;;;;4999800;28;20467;-57
2021/03/26 10:50:17;;;;;;;14.50;3.03;;;12.60;99.90;;;;;;5002260;28;20488;-57
2021/03/26 10:52:54;;;;;;;14.77;3.95;;;12.80;99.90;;;;;;5013343;28;20064;-58
2021/03/26 10:55:29;;;;;;;16.88;3.28;;;12.90;99.90;;;;;;5013148;28;20088;-57
2021/03/26 10:58:04;;;;;;;;;;;13.00;99.90;;;;;;5013732;28;20073;-56
2021/03/26 11:00:38;;;;;;;23.70;3.95;;;13.10;99.90;;;;;;5013561;28;19913;-58
2021/03/26 11:03:39;;;;;;;17.30;3.40;;;13.30;99.90;;;;;;5013347;28;20041;-57
2021/03/26 11:06:27;;;;;;;15.75;3.50;;;13.50;99.90;;;;;;5013170;28;20464;-57
2021/03/26 11:09:16;;;;;;;16.13;3.42;;;13.60;99.90;;;;;;5012962;28;20030;-59
2021/03/26 11:11:41;;;;;;;18.23;3.72;;;13.80;99.90;;;;;;5012776;28;20411;-55
2021/03/26 11:14:22;;;;;;;15.57;3.20;;;13.80;99.90;;;;;;5012880;28;20041;-59
2021/03/26 11:17:10;;;;;;;22.17;3.25;;;13.90;99.90;;;;;;5013264;28;20045;-56
2021/03/26 11:20:08;;;;;;;14.57;3.22;;;13.80;99.90;;;;;;5000364;28;20030;-56
2021/03/26 11:22:35;;;;;;;20.52;3.60;;;13.70;99.90;;;;;;5012724;28;20042;-58
2021/03/26 11:25:11;;;;;;;17.60;4.43;;;13.70;99.90;;;;;;5012738;28;20439;-56
2021/03/26 11:27:50;;;;;;;15.85;3.17;;;13.60;99.90;;;;;;5012645;28;20030;-56
2021/03/26 11:30:33;;;;;;;15.63;3.28;;;13.60;99.90;;;;;;5012802;28;20474;-59
2021/03/26 11:33:22;;;;;;;11.30;2.97;;;13.60;99.90;;;;;;4998952;28;20026;-59
2021/03/26 11:35:50;;;;;;;12.02;2.75;;;13.50;99.90;;;;;;4974686;28;20042;-57
2021/03/26 11:38:24;;;;;;;19.17;3.38;;;13.40;99.90;;;;;;5012251;28;20022;-59
2021/03/26 11:41:19;;;;;;;15.10;3.67;;;13.30;99.90;;;;;;5012305;28;20041;-57
2021/03/26 11:43:48;;;;;;;17.70;3.55;;;13.30;99.90;;;;;;4999516;28;20034;-57
2021/03/26 11:46:18;;;;;;;18.65;3.60;;;13.30;99.90;;;;;;5012318;28;20083;-57
2021/03/26 11:49:02;;;;;;;15.27;3.45;;;13.30;99.90;;;;;;5011700;28;20033;-56
2021/03/26 11:51:27;;;;;;;14.55;3.72;;;13.30;99.90;;;;;;5012209;28;20037;-56
2021/03/26 11:54:11;;;;;;;18.75;3.45;;;13.30;99.90;;;;;;5012061;28;20034;-58
2021/03/26 11:56:45;;;;;;;22.65;5.05;;;13.30;99.90;;;;;;5011953;28;20030;-57
2021/03/26 11:59:32;;;;;;;19.63;3.80;;;13.30;99.90;;;;;;5012175;28;20065;-55
2021/03/26 12:02:25;;;;;;;20.88;4.03;;;13.40;99.90;;;;;;5011794;28;20038;-57
2021/03/26 12:05:07;;;;;;;20.48;3.17;;;13.30;99.90;;;;;;5012087;28;20484;-58
2021/03/26 12:07:44;;;;;;;14.00;3.42;;;13.30;99.90;;;;;;5011400;28;20060;-56
2021/03/26 12:10:58;;;;;;;13.57;3.17;;;13.30;99.90;;;;;;5011856;28;20120;-58
2021/03/26 12:13:31;;;;;;;18.33;3.15;;;13.30;99.90;;;;;;4951150;28;20145;-57
2021/03/26 12:16:18;;;;;;;12.95;3.10;;;13.20;99.90;;;;;;4951145;28;20046;-56
2021/03/26 12:18:55;;;;;;;14.88;3.03;;;13.00;99.90;;;;;;4981299;28;20504;-59
2021/03/26 12:21:48;;;;;;;17.17;3.47;;;12.80;99.90;;;;;;5011121;28;20568;-58
2021/03/26 12:24:21;;;;;;;15.57;3.58;;;12.80;99.90;;;;;;5011754;28;20022;-58
2021/03/26 12:27:17;;;;;;;18.13;3.33;;;12.90;99.90;;;;;;5012213;28;20044;-57
2021/03/26 12:30:15;;;;;;;13.30;3.05;;;13.00;99.90;;;;;;4997917;28;20034;-57
2021/03/26 12:32:48;;;;;;;16.50;3.88;;;13.10;99.90;;;;;;5011343;28;20032;-56
2021/03/26 12:35:20;;;;;;;16.70;3.08;;;13.20;99.90;;;;;;5011854;28;20110;-58
2021/03/26 12:38:09;;;;;;;14.85;2.53;;;13.20;99.90;;;;;;5011507;28;20053;-58
2021/03/26 12:40:35;;;;;;;18.45;3.50;;;13.20;99.90;;;;;;5000514;28;20112;-58
2021/03/26 12:43:07;;;;;;;16.02;3.00;;;13.20;99.90;;;;;;5011135;28;20546;-57
2021/03/26 12:46:01;;;;;;;13.50;3.53;;;13.30;99.90;;;;;;5011561;28;20022;-58
2021/03/26 12:48:42;;;;;;;15.57;3.95;;;13.40;99.90;;;;;;5009200;28;20061;-56
2021/03/26 12:51:35;;;;;;;15.82;3.47;;;13.40;99.90;;;;;;5011705;28;20022;-59
2021/03/26 12:54:28;;;;;;;20.27;3.72;;;13.30;99.90;;;;;;5011363;28;20038;-59
2021/03/26 12:56:58;;;;;;;14.07;3.25;;;13.10;99.90;;;;;;5011357;28;20515;-59
2021/03/26 12:59:32;;;;;;;16.95;3.38;;;13.00;99.90;;;;;;5011148;28;20026;-58
2021/03/26 13:02:09;;;;;;;13.18;3.00;;;12.90;99.90;;;;;;5011223;28;20472;-58
2021/03/26 13:04:54;;;;;;;17.38;3.83;;;12.90;99.90;;;;;;5011115;28;20054;-56
2021/03/26 13:07:32;;;;;;;14.75;2.17;;;12.80;99.90;;;;;;5011105;28;20408;-57
2021/03/26 13:10:19;;;;;;;8.77;1.33;;;12.10;99.90;;;;;;5011373;28;20065;-58
2021/03/26 13:12:47;;;;;;;13.95;3.22;;;11.20;99.90;;;;;;4998637;28;20026;-57
2021/03/26 13:15:24;;;;;;;10.40;1.50;;;10.70;99.90;;;;;;5011064;28;20050;-57
2021/03/26 13:18:11;;;;;;;5.57;1.40;;;10.20;99.90;;;;;;4998599;28;20041;-59
2021/03/26 13:21:10;;;;;;;15.82;2.67;;;10.00;99.90;;;;;;5010934;28;20539;-59
2021/03/26 13:23:38;;;;;;;4.70;1.15;;;9.90;99.90;;;;;;5011158;28;20056;-59
2021/03/26 13:26:15;;;;;;;5.88;1.52;;;9.90;99.90;;;;;;5010818;28;20065;-59
2021/03/26 13:28:56;;;;;;;7.82;1.50;;;9.80;99.90;;;;;;5010946;28;20112;-60
2021/03/26 13:31:31;;;;;;;3.90;1.13;;;9.90;99.90;;;;;;5010958;28;20029;-59
2021/03/26 13:34:02;;;;;;;;;;;9.80;99.90;;;;;;5011453;28;20018;-54
2021/03/26 13:37:12;;;;;;;4.00;0.90;;;9.70;99.90;;;;;;4998307;28;19909;-55
2021/03/26 13:39:49;;;;;;;4.47;1.00;;;9.70;99.90;;;;;;5010762;28;20041;-55
2021/03/26 13:42:21;;;;;;;5.22;1.17;;;9.60;99.90;;;;;;5013578;28;20038;-59
2021/03/26 13:45:03;;;;;;;5.70;1.27;;;9.60;99.90;;;;;;5014414;28;20124;-57